Flight Track Log - Related Links

Times and Time Zones

All times are in EDT time to prevent confusion due to time zone crossing. See the SWA1377 flight status page for this flight to view local times or setup timezone preferences in your user account.

Time Position Orientation Groundspeed Altitude Reporting Facility
EDT Latitude Longitude Course Direction KTS MPH feet Rate Location/Type
Fri 04:07:23 PM 39.4667 -119.7667 180° South 173 199 6,000  Level Northern Cal TRACON
Fri 04:08:24 PM 39.4000 -119.7667 180° South 232 267 8,800 2,526 Climbing Northern Cal TRACON
Fri 04:09:17 PM 39.3539 -119.7672 181° South 254 292 10,800 2,421 Climbing Oakland Center
Fri 04:10:18 PM 39.2842 -119.7083 147° Southeast 326 375 13,400 3,024 Climbing Oakland Center
Fri 04:11:20 PM 39.1992 -119.6003 135° Southeast 350 403 17,000 2,878 Climbing Oakland Center
Fri 04:12:21 PM 39.1200 -119.5033 136° Southeast 376 433 19,300 2,439 Climbing Oakland Center
Fri 04:13:23 PM 39.0350 -119.3972 136° Southeast 415 478 22,000 2,488 Climbing Oakland Center
Fri 04:14:24 PM 38.9475 -119.2886 136° Southeast 435 501 24,400 2,213 Climbing Oakland Center
Fri 04:15:25 PM 38.8561 -119.1758 136° Southeast 454 522 26,500 1,902 Climbing Oakland Center
Fri 04:16:27 PM 38.7622 -119.0600 136° Southeast 468 539 28,300 2,000 Climbing Oakland Center
Fri 04:17:28 PM 38.6639 -118.9411 137° Southeast 480 552 30,600 1,317 Climbing Oakland Center
Fri 04:18:30 PM 38.5494 -118.8008 136° Southeast 481 554 31,000 195 Climbing Oakland Center
Fri 04:19:31 PM 38.4578 -118.6911 137° Southeast 465 535 31,000  Level Oakland Center
Fri 04:20:33 PM 38.3658 -118.5800 137° Southeast 458 527 31,000  Level Oakland Center
Fri 04:21:34 PM 38.2744 -118.4703 137° Southeast 455 524 31,000  Level Oakland Center
Fri 04:22:36 PM 38.1811 -118.3597 137° Southeast 457 526 31,000  Level Oakland Center
Fri 04:23:37 PM 38.0881 -118.2467 136° Southeast 459 528 31,000  Level Oakland Center
Fri 04:24:39 PM 37.9953 -118.1361 137° Southeast 461 531 31,000  Level Oakland Center
Fri 04:25:40 PM 37.8858 -118.0056 137° Southeast 454 522 31,000  Level Oakland Center
Fri 04:26:42 PM 37.7942 -117.8972 137° Southeast 454 522 31,000  Level Oakland Center
Fri 04:27:43 PM 37.7019 -117.7886 137° Southeast 454 522 31,000  Level Oakland Center
Fri 04:28:45 PM 37.6092 -117.6814 138° Southeast 455 524 31,000  Level Oakland Center
Fri 04:29:46 PM 37.5183 -117.5728 137° Southeast 454 522 31,000  Level Oakland Center
Fri 04:30:48 PM 37.4258 -117.4656 137° Southeast 453 521 31,000  Level Oakland Center
Fri 04:31:49 PM 37.3328 -117.3581 137° Southeast 455 524 31,000  Level Oakland Center
Fri 04:32:51 PM 37.2397 -117.2522 138° Southeast 454 522 31,000 -488 Level Oakland Center
Fri 04:33:52 PM 37.1286 -117.1258 138° Southeast 452 520 30,000 -976 Descending Oakland Center
Fri 04:34:54 PM 37.0408 -117.0233 137° Southeast 441 507 29,000 -968 Descending Oakland Center
Fri 04:35:56 PM 36.9525 -116.9214 137° Southeast 437 503 28,000 -1,000 Descending Oakland Center
Fri 04:36:54 PM 36.8658 -116.8225 138° Southeast 425 489 27,000 -1,050 Descending Los Angeles Center
Fri 04:37:56 PM 36.7828 -116.7228 136° Southeast 415 478 25,900 -1,008 Descending Los Angeles Center
Fri 04:38:59 PM 36.7097 -116.6167 131° Southeast 405 466 24,900 -960 Descending Los Angeles Center
Fri 04:40:01 PM 36.6369 -116.5139 131° Southeast 398 458 23,900 -968 Descending Los Angeles Center
Fri 04:41:03 PM 36.5653 -116.4122 131° Southeast 391 450 22,900 -1,016 Descending Los Angeles Center
Fri 04:42:05 PM 36.4853 -116.2972 131° Southeast 384 442 21,800 -1,065 Descending Los Angeles Center
Fri 04:43:07 PM 36.4125 -116.1942 131° Southeast 378 435 20,700 -1,131 Descending Los Angeles Center
Fri 04:44:07 PM 36.3419 -116.1042 134° Southeast 361 415 19,500 -1,355 Descending Los Angeles Center
Fri 04:45:11 PM 36.2761 -116.0039 129° Southeast 351 404 17,900 -1,584 Descending Los Angeles Center
Fri 04:46:12 PM 36.2128 -115.9192 133° Southeast 341 392 16,200 -958 Descending Los Angeles Center
Fri 04:47:10 PM 36.1717 -115.8153 116° Southeast 337 388 16,000 -480 Descending Los Angeles Center
Fri 04:48:17 PM 36.1333 -115.6919 111° Southeast 334 384 15,200 -1,082 Descending Los Angeles Center
Fri 04:49:12 PM 36.1019 -115.5986 113° Southeast 329 379 13,800 -1,500 Descending Los Angeles Center
Fri 04:50:13 PM 36.0694 -115.4975 112° Southeast 316 364 12,300 -1,328 Descending Los Angeles Center
Fri 04:51:14 PM 36.0369 -115.3964 112° Southeast 312 359 11,100 -991 Descending Los Angeles Center
Fri 04:52:02 PM 36.0264 -115.3175 99° East 288 331 10,500 -750 Descending Los Angeles Center
Fri 04:52:26 PM 36.0250 -115.2908 94° East 295 339 10,200 -1,254 Descending Los Angeles Center
Fri 04:53:09 PM 36.0189 -115.2136 96° East 280 322 9,100 -1,258 Descending Los Angeles Center
Fri 04:53:28 PM 36.0183 -115.1969 92° East 281 323 8,900 -1,082 Descending Los Angeles Center
Fri 04:54:10 PM 36.0119 -115.1122 95° East 281 323 8,000 -871 Descending Los Angeles Center
Fri 04:54:30 PM 36.0106 -115.0842 93° East 277 319 8,000 -197 Level Los Angeles Center
Fri 04:55:11 PM 36.0081 -115.0339 94° East 230 265 7,800 -484 Descending Los Angeles Center
Fri 04:55:32 PM 36.0067 -115.0111 94° East 231 266 7,500 -885 Descending Los Angeles Center
Fri 04:56:12 PM 36.0039 -114.9661 94° East 203 234 6,900 -871 Descending Los Angeles Center
Fri 04:56:34 PM 36.0108 -114.9469 66° East 213 245 6,600 -1,091 Descending Los Angeles Center
Fri 04:57:07 PM 36.0403 -114.9539 349° North 187 215 5,900 -1,355 Descending Los Angeles Center
Fri 04:57:36 PM 36.0567 -114.9686 324° Northwest 201 231 5,200 -1,672 Descending Los Angeles Center
Fri 04:58:08 PM 36.0708 -115.0050 296° West 187 215 4,200 -1,452 Descending Los Angeles Center
Fri 04:58:38 PM 36.0761 -115.0244 289° West 186 214 3,700 -1,111 Descending Los Angeles Center
Fri 04:59:02 PM 36.0742 -115.0597 266° West 176 203 3,200 -871 Descending Los Angeles Center
Fri 04:59:40 PM 36.0742 -115.0817 270° West 173 199 2,800 -896 Descending Los Angeles Center
Fri 05:00:09 PM 36.0739 -115.1183 269° West 153 176 2,200 -762 Descending Los Angeles Center
Fri 05:00:43 PM 36.0739 -115.1344 270° West 162 186 2,000 -353 Descending Los Angeles Center
Fri 05:02:00 PM 36.0667 -115.1500 270° West  Level FlightAware Approximate

Login

Don't have an account? Register now (free) for customized features, flight alerts, and more!